createdAt,value
2023-03-12T00:02:27.084Z,51.95
2023-03-12T00:05:31.831Z,50.29
2023-03-12T00:08:35.839Z,51.44
2023-03-12T00:15:16.648Z,50.66
2023-03-12T00:18:20.865Z,50.94
2023-03-12T00:21:25.897Z,51.42
2023-03-12T00:24:29.841Z,51.87
2023-03-12T00:27:35.279Z,52.90
2023-03-12T00:30:41.069Z,52.62
2023-03-12T00:33:45.389Z,52.43
2023-03-12T00:36:49.429Z,52.97
2023-03-12T00:39:53.850Z,52.60
2023-03-12T00:42:58.001Z,50.85
2023-03-12T00:46:02.504Z,52.14
2023-03-12T00:49:06.574Z,51.12
2023-03-12T00:52:10.967Z,51.50
2023-03-12T00:55:15.039Z,51.61
2023-03-12T00:58:19.070Z,51.62
2023-03-12T01:01:23.142Z,52.23
2023-03-12T01:04:28.109Z,52.39
2023-03-12T01:07:32.053Z,51.24
2023-03-12T01:10:38.019Z,50.92
2023-03-12T01:13:43.449Z,51.81
2023-03-12T01:16:49.165Z,51.90
2023-03-12T01:19:53.824Z,50.17
2023-03-12T01:22:57.630Z,50.26
2023-03-12T01:26:01.860Z,50.40
2023-03-12T01:29:06.493Z,50.24
2023-03-12T01:32:10.445Z,50.03
2023-03-12T01:35:14.800Z,49.92
2023-03-12T01:38:19.837Z,50.46
2023-03-12T01:41:25.665Z,49.83
2023-03-12T01:44:30.500Z,50.57
2023-03-12T01:47:34.618Z,49.32
2023-03-12T01:50:43.411Z,50.59
2023-03-12T01:53:52.170Z,49.14
2023-03-12T01:56:57.182Z,46.87
2023-03-12T02:00:06.278Z,45.02
2023-03-12T02:03:18.150Z,45.57
2023-03-12T02:06:59.072Z,37.11
2023-03-12T02:10:04.473Z,40.69
2023-03-12T02:13:08.967Z,42.49
2023-03-12T02:16:14.804Z,44.48
2023-03-12T02:19:43.127Z,44.66
2023-03-12T02:22:58.162Z,45.82
2023-03-12T02:26:05.675Z,45.53
2023-03-12T02:29:13.110Z,48.22
2023-03-12T02:32:32.336Z,47.75
2023-03-12T02:35:37.083Z,47.98
2023-03-12T02:38:46.822Z,46.85
2023-03-12T02:41:55.271Z,48.84
2023-03-12T02:45:01.407Z,48.03
2023-03-12T02:48:10.311Z,46.98
2023-03-12T02:51:14.553Z,47.39
2023-03-12T02:54:20.683Z,47.97
2023-03-12T02:57:25.917Z,47.97
2023-03-12T03:00:32.825Z,49.68
2023-03-12T03:03:37.000Z,48.74
2023-03-12T03:06:43.907Z,49.95
2023-03-12T03:09:49.026Z,49.54
2023-03-12T03:12:53.145Z,48.86
2023-03-12T03:16:02.610Z,48.18
2023-03-12T03:19:07.134Z,48.99
2023-03-12T03:22:12.383Z,50.23
2023-03-12T03:25:16.617Z,50.14
2023-03-12T03:28:21.938Z,50.59
2023-03-12T03:31:26.113Z,50.92
2023-03-12T03:34:30.820Z,50.60
2023-03-12T03:37:35.192Z,49.78
2023-03-12T03:40:38.983Z,49.82
2023-03-12T03:43:43.149Z,47.87
2023-03-12T03:46:48.506Z,48.06
2023-03-12T03:49:53.081Z,47.76
2023-03-12T03:52:57.948Z,48.96
2023-03-12T03:56:17.260Z,48.39
2023-03-12T03:59:24.904Z,49.13
2023-03-12T04:02:29.678Z,49.91
2023-03-12T04:05:35.298Z,52.09
2023-03-12T04:08:39.695Z,52.78
2023-03-12T04:11:47.175Z,52.39
2023-03-12T04:14:52.858Z,55.11
2023-03-12T04:17:57.532Z,55.46
2023-03-12T04:21:03.288Z,57.76
2023-03-12T04:24:09.186Z,55.39
2023-03-12T04:27:13.837Z,55.26
2023-03-12T04:30:17.873Z,57.46
2023-03-12T04:33:22.522Z,56.56
2023-03-12T04:36:26.677Z,57.57
2023-03-12T04:39:32.289Z,58.24
2023-03-12T04:42:37.804Z,60.73
2023-03-12T04:45:43.586Z,61.30
2023-03-12T04:48:48.152Z,61.92
2023-03-12T04:51:53.293Z,63.79
2023-03-12T04:55:01.185Z,66.52
2023-03-12T04:58:06.295Z,68.57
2023-03-12T05:01:22.961Z,67.93
2023-03-12T05:04:27.869Z,65.81
2023-03-12T05:07:32.544Z,64.16
2023-03-12T05:10:36.701Z,62.31
2023-03-12T05:13:41.439Z,62.48
2023-03-12T05:16:46.080Z,61.07
2023-03-12T05:19:50.677Z,62.27
2023-03-12T05:22:54.979Z,61.64
2023-03-12T05:25:59.705Z,62.32
2023-03-12T05:29:06.760Z,63.85
2023-03-12T05:32:10.931Z,64.07
2023-03-12T05:35:15.320Z,62.42
2023-03-12T05:38:21.378Z,62.00
2023-03-12T05:42:15.790Z,61.96
2023-03-12T05:45:21.328Z,62.17
2023-03-12T05:48:30.442Z,61.32
2023-03-12T05:51:36.053Z,61.62
2023-03-12T05:54:40.158Z,63.68
2023-03-12T05:57:45.309Z,64.30
2023-03-12T06:00:49.880Z,64.88
2023-03-12T06:03:56.663Z,65.04
2023-03-12T06:07:02.366Z,65.00
2023-03-12T06:10:08.505Z,64.37
2023-03-12T06:13:12.822Z,64.34
2023-03-12T06:16:23.045Z,68.94
2023-03-12T06:19:27.407Z,67.02
2023-03-12T06:22:32.098Z,66.22
2023-03-12T06:25:37.152Z,66.63
2023-03-12T06:28:41.681Z,65.63
2023-03-12T06:31:46.275Z,66.39
2023-03-12T06:34:51.153Z,65.74
2023-03-12T06:37:55.075Z,66.96
2023-03-12T06:41:15.713Z,68.25
2023-03-12T06:44:20.514Z,68.66
2023-03-12T06:47:25.003Z,68.09
2023-03-12T06:50:29.410Z,70.46
2023-03-12T06:53:34.214Z,70.64
2023-03-12T06:56:39.103Z,70.84
2023-03-12T06:59:43.517Z,73.26
2023-03-12T07:02:47.572Z,71.44
2023-03-12T07:05:53.413Z,71.80
2023-03-12T07:08:57.837Z,72.20
2023-03-12T07:12:05.104Z,73.33
2023-03-12T07:15:11.128Z,74.05
2023-03-12T07:18:16.893Z,73.63
2023-03-12T07:21:24.634Z,71.73
2023-03-12T07:24:29.112Z,71.06
2023-03-12T07:27:34.279Z,71.11
2023-03-12T07:30:39.435Z,71.40
2023-03-12T07:33:44.203Z,71.36
2023-03-12T07:36:48.891Z,72.61
2023-03-12T07:39:55.558Z,73.90
2023-03-12T07:42:59.987Z,74.78
2023-03-12T07:46:04.467Z,72.93
2023-03-12T07:49:09.052Z,72.14
2023-03-12T07:52:16.591Z,74.06
2023-03-12T07:55:21.194Z,73.36
2023-03-12T07:58:25.950Z,73.04
2023-03-12T08:01:33.038Z,73.85
2023-03-12T08:04:37.690Z,74.15
2023-03-12T08:07:42.237Z,73.44
2023-03-12T08:10:46.713Z,74.75
2023-03-12T08:13:51.147Z,76.38
2023-03-12T08:16:59.458Z,75.61
2023-03-12T08:20:05.414Z,74.98
2023-03-12T08:23:10.875Z,77.81
2023-03-12T08:26:15.101Z,76.90
2023-03-12T08:29:19.278Z,74.64
2023-03-12T08:32:23.836Z,75.20
2023-03-12T08:35:28.835Z,75.97
2023-03-12T08:38:33.411Z,75.24
2023-03-12T08:41:37.988Z,76.46
2023-03-12T08:44:42.513Z,78.04
2023-03-12T08:47:47.059Z,79.03
2023-03-12T08:50:51.721Z,78.98
2023-03-12T08:53:56.239Z,79.29
2023-03-12T08:57:01.180Z,79.10
2023-03-12T09:00:07.743Z,77.74
2023-03-12T09:03:15.650Z,78.47
2023-03-12T09:06:21.743Z,78.80
2023-03-12T09:09:25.918Z,77.72
2023-03-12T09:12:30.520Z,78.52
2023-03-12T09:15:35.206Z,79.55
2023-03-12T09:18:40.085Z,80.37
2023-03-12T09:21:44.500Z,79.20
2023-03-12T09:24:48.974Z,79.23
2023-03-12T09:27:53.461Z,78.79
2023-03-12T09:30:57.915Z,78.86
2023-03-12T09:34:02.629Z,78.94
2023-03-12T09:37:07.073Z,79.01
2023-03-12T09:40:20.960Z,79.49
2023-03-12T09:44:07.430Z,79.30
2023-03-12T09:47:26.358Z,80.04
2023-03-12T09:50:44.586Z,79.65
2023-03-12T09:54:01.669Z,80.32
2023-03-12T09:57:14.354Z,80.13
2023-03-12T10:00:21.947Z,79.39
2023-03-12T10:03:41.803Z,81.67
2023-03-12T10:06:49.194Z,82.88
2023-03-12T10:09:58.981Z,81.74
2023-03-12T10:13:15.811Z,80.47
2023-03-12T10:16:32.071Z,82.14
2023-03-12T10:19:36.149Z,83.40
2023-03-12T10:22:59.519Z,82.22
2023-03-12T10:26:33.230Z,81.44
2023-03-12T10:29:44.579Z,82.01
2023-03-12T10:33:12.880Z,82.12
2023-03-12T10:36:41.750Z,81.66
2023-03-12T10:39:46.450Z,81.19
2023-03-12T10:42:51.080Z,82.24
2023-03-12T10:46:16.506Z,82.63
2023-03-12T10:49:24.039Z,81.58
2023-03-12T10:52:28.527Z,82.08
2023-03-12T10:55:33.387Z,81.79
2023-03-12T10:58:52.833Z,80.32
2023-03-12T11:01:58.448Z,80.47
2023-03-12T11:05:06.438Z,82.54
2023-03-12T11:08:26.111Z,82.12
2023-03-12T11:11:35.789Z,81.08
2023-03-12T11:14:47.838Z,80.90
2023-03-12T11:17:53.093Z,82.07
2023-03-12T11:21:19.503Z,80.21
2023-03-12T11:24:26.522Z,80.95
2023-03-12T11:27:39.097Z,81.42
2023-03-12T11:30:46.039Z,79.71
2023-03-12T11:33:52.692Z,80.25
2023-03-12T11:36:57.351Z,80.98
2023-03-12T11:40:13.925Z,81.78
2023-03-12T11:43:50.771Z,81.12
2023-03-12T11:47:06.801Z,82.85
2023-03-12T11:50:21.836Z,81.97
2023-03-12T11:53:34.954Z,82.40
2023-03-12T11:56:52.894Z,82.52
2023-03-12T12:00:23.221Z,80.46
2023-03-12T12:03:54.918Z,80.35
2023-03-12T12:07:19.079Z,82.50
2023-03-12T12:10:48.736Z,81.74
2023-03-12T12:14:08.503Z,80.85
2023-03-12T12:17:37.472Z,81.68
2023-03-12T12:21:23.277Z,82.77
2023-03-12T12:24:48.881Z,82.65
2023-03-12T12:28:14.416Z,84.01
2023-03-12T12:31:25.556Z,83.76
2023-03-12T12:34:56.088Z,83.42
2023-03-12T12:38:21.680Z,81.98
2023-03-12T12:41:27.921Z,82.77
2023-03-12T12:44:48.449Z,82.39
2023-03-12T12:48:19.262Z,82.76
2023-03-12T12:51:32.471Z,82.68
2023-03-12T12:55:15.955Z,81.98
2023-03-12T12:58:27.821Z,81.18
2023-03-12T13:01:35.349Z,81.70
2023-03-12T13:04:41.382Z,82.33
2023-03-12T13:07:46.132Z,83.49
2023-03-12T13:10:58.014Z,84.69
2023-03-12T13:14:07.132Z,83.95
2023-03-12T13:17:36.217Z,83.20
2023-03-12T13:21:09.146Z,83.62
2023-03-12T13:24:30.600Z,84.52
2023-03-12T13:27:44.205Z,84.73
2023-03-12T13:30:52.498Z,84.95
2023-03-12T13:34:01.534Z,83.63
2023-03-12T13:37:21.298Z,83.52
2023-03-12T13:40:31.820Z,84.18
2023-03-12T13:43:39.675Z,85.22
2023-03-12T13:46:47.243Z,84.29
2023-03-12T13:50:20.465Z,83.83
2023-03-12T13:53:34.648Z,84.23
2023-03-12T13:56:39.468Z,84.44
2023-03-12T13:59:47.443Z,83.41
2023-03-12T14:03:15.970Z,83.48
2023-03-12T14:06:25.993Z,83.73
2023-03-12T14:09:50.851Z,84.92
2023-03-12T14:13:14.094Z,82.85
2023-03-12T14:16:25.981Z,84.93
2023-03-12T14:19:37.350Z,85.12
2023-03-12T14:22:46.130Z,84.63
2023-03-12T14:25:52.536Z,84.25
2023-03-12T14:29:15.896Z,85.30
2023-03-12T14:32:32.739Z,85.02
2023-03-12T14:36:02.888Z,85.77
2023-03-12T14:39:43.694Z,85.50
2023-03-12T14:42:48.844Z,84.85
2023-03-12T14:46:52.901Z,83.96
2023-03-12T14:50:02.165Z,84.48
2023-03-12T14:53:26.245Z,82.93
2023-03-12T14:56:50.532Z,84.17
2023-03-12T15:00:30.590Z,83.10
2023-03-12T15:03:46.351Z,83.86
2023-03-12T15:06:57.325Z,83.32
2023-03-12T15:10:43.377Z,83.54
2023-03-12T15:14:39.453Z,84.43
2023-03-12T15:17:52.647Z,84.96
2023-03-12T15:20:59.675Z,87.37
2023-03-12T15:24:04.848Z,88.31
2023-03-12T15:27:30.394Z,87.06
2023-03-12T15:30:36.773Z,87.65
2023-03-12T15:33:42.857Z,89.62
2023-03-12T15:36:50.057Z,88.49
2023-03-12T15:39:55.725Z,86.07
2023-03-12T15:43:03.952Z,86.24
2023-03-12T15:46:08.883Z,85.87
2023-03-12T15:49:25.338Z,84.85
2023-03-12T15:52:33.426Z,86.42
2023-03-12T15:55:37.927Z,87.59
2023-03-12T15:58:43.346Z,93.11
2023-03-12T16:01:52.457Z,93.83
2023-03-12T16:04:56.993Z,95.34
2023-03-12T16:08:12.453Z,94.64
2023-03-12T16:11:20.700Z,95.80
2023-03-12T16:14:32.803Z,96.37
2023-03-12T16:17:37.325Z,95.24
2023-03-12T16:20:42.615Z,93.53
2023-03-12T16:23:46.635Z,92.62
2023-03-12T16:26:56.143Z,92.18
2023-03-12T16:30:00.595Z,91.71
2023-03-12T16:33:09.198Z,90.46
2023-03-12T16:36:20.038Z,92.94
2023-03-12T16:39:24.858Z,92.70
2023-03-12T16:42:29.444Z,92.13
2023-03-12T16:45:37.690Z,91.24
2023-03-12T16:48:42.823Z,90.34
2023-03-12T16:51:47.683Z,88.73
2023-03-12T16:54:53.655Z,89.21
2023-03-12T16:58:01.442Z,88.63
2023-03-12T17:01:06.316Z,88.22
2023-03-12T17:04:12.636Z,88.89
2023-03-12T17:07:17.221Z,89.18
2023-03-12T17:10:23.185Z,90.43
2023-03-12T17:13:30.127Z,89.50
2023-03-12T17:16:34.482Z,89.20
2023-03-12T17:19:41.817Z,86.83
2023-03-12T17:22:46.487Z,87.47
2023-03-12T17:25:50.554Z,88.14
2023-03-12T17:28:57.017Z,88.53
2023-03-12T17:32:01.460Z,87.66
2023-03-12T17:35:07.578Z,87.03
2023-03-12T17:38:13.324Z,87.08
2023-03-12T17:41:26.156Z,86.84
2023-03-12T17:44:35.673Z,86.45
2023-03-12T17:47:40.461Z,85.96
2023-03-12T17:50:45.438Z,87.00
2023-03-12T17:53:49.966Z,87.92
2023-03-12T17:56:54.520Z,86.93
2023-03-12T17:59:59.031Z,86.78
2023-03-12T18:03:04.313Z,87.46
2023-03-12T18:06:10.823Z,87.27
2023-03-12T18:09:17.740Z,87.52
2023-03-12T18:12:22.162Z,86.48
2023-03-12T18:15:26.514Z,86.44
2023-03-12T18:18:30.972Z,86.48
2023-03-12T18:21:35.561Z,86.83
2023-03-12T18:24:40.250Z,86.30
2023-03-12T18:27:44.571Z,85.26
2023-03-12T18:30:51.731Z,85.79
2023-03-12T18:33:56.359Z,85.94
2023-03-12T18:37:00.984Z,85.22
2023-03-12T18:40:09.067Z,85.68
2023-03-12T18:43:14.310Z,85.42
2023-03-12T18:46:19.916Z,85.73
2023-03-12T18:49:26.441Z,86.51
2023-03-12T18:52:37.171Z,87.60
2023-03-12T18:55:56.147Z,87.14
2023-03-12T18:59:04.198Z,88.08
2023-03-12T19:02:08.753Z,86.89
2023-03-12T19:05:13.882Z,86.73
2023-03-12T19:08:18.520Z,86.63
2023-03-12T19:11:22.954Z,92.12
2023-03-12T19:14:28.716Z,92.90
2023-03-12T19:17:32.817Z,90.41
2023-03-12T19:20:37.453Z,92.19
2023-03-12T19:23:41.938Z,91.15
2023-03-12T19:26:46.552Z,88.17
2023-03-12T19:29:50.920Z,90.68
2023-03-12T19:32:55.595Z,88.32
2023-03-12T19:36:00.909Z,88.37
2023-03-12T19:39:11.974Z,90.15
2023-03-12T19:42:23.182Z,90.89
2023-03-12T19:45:27.979Z,88.12
2023-03-12T19:48:32.509Z,90.05
2023-03-12T19:51:37.015Z,90.06
2023-03-12T19:54:51.666Z,89.07
2023-03-12T19:57:59.141Z,88.67
2023-03-12T20:04:48.755Z,88.11
2023-03-12T20:07:53.452Z,89.52
2023-03-12T20:11:09.776Z,88.52
2023-03-12T20:14:14.107Z,88.78
2023-03-12T20:17:18.624Z,87.48
2023-03-12T20:20:23.127Z,87.67
2023-03-12T20:23:27.336Z,87.03
2023-03-12T20:26:31.860Z,88.10
2023-03-12T20:29:36.412Z,87.49
2023-03-12T20:32:40.924Z,86.95
2023-03-12T20:35:45.590Z,86.90
2023-03-12T20:38:50.578Z,88.37
2023-03-12T20:41:54.937Z,86.64
2023-03-12T20:44:59.315Z,86.96
2023-03-12T20:48:03.962Z,86.96
2023-03-12T20:51:08.392Z,87.17
2023-03-12T20:54:13.016Z,85.67
2023-03-12T20:57:17.363Z,87.84
2023-03-12T21:00:22.285Z,87.44
2023-03-12T21:03:26.736Z,87.46
2023-03-12T21:06:31.627Z,88.89
2023-03-12T21:09:36.881Z,88.35
2023-03-12T21:12:43.151Z,88.07
2023-03-12T21:15:47.832Z,89.05
2023-03-12T21:18:59.781Z,88.02
2023-03-12T21:22:04.233Z,88.25
2023-03-12T21:25:09.059Z,87.24
2023-03-12T21:28:13.833Z,87.06
2023-03-12T21:31:18.894Z,86.82
2023-03-12T21:34:23.984Z,87.19
2023-03-12T21:37:29.554Z,88.24
2023-03-12T21:40:33.731Z,88.46
2023-03-12T21:43:38.861Z,86.66
2023-03-12T21:46:43.521Z,86.80
2023-03-12T21:49:48.023Z,87.83
2023-03-12T21:52:52.752Z,87.04
2023-03-12T21:55:58.636Z,87.67
2023-03-12T21:59:03.683Z,86.43
2023-03-12T22:02:08.525Z,87.36
2023-03-12T22:05:13.768Z,87.15
2023-03-12T22:08:18.364Z,85.85
2023-03-12T22:11:23.122Z,85.33
2023-03-12T22:14:27.642Z,84.24
2023-03-12T22:17:33.580Z,85.31
2023-03-12T22:20:38.445Z,86.20
2023-03-12T22:23:43.065Z,85.20
2023-03-12T22:26:48.079Z,85.81
2023-03-12T22:29:53.923Z,86.01
2023-03-12T22:32:58.444Z,83.75
2023-03-12T22:36:08.061Z,85.97
2023-03-12T22:39:12.715Z,83.91
2023-03-12T22:42:17.060Z,84.27
2023-03-12T22:45:21.273Z,82.86
2023-03-12T22:48:25.399Z,83.33
2023-03-12T22:51:31.518Z,83.91
2023-03-12T22:54:35.627Z,83.36
2023-03-12T22:57:39.969Z,81.59
2023-03-12T23:00:43.811Z,82.41
2023-03-12T23:03:49.028Z,81.72
2023-03-12T23:06:59.070Z,83.05
2023-03-12T23:10:09.381Z,81.47
2023-03-12T23:13:16.985Z,81.82
2023-03-12T23:16:25.070Z,80.90
2023-03-12T23:19:34.222Z,81.47
2023-03-12T23:22:38.899Z,81.36
2023-03-12T23:25:43.542Z,79.92
2023-03-12T23:28:48.550Z,81.22
2023-03-12T23:31:53.338Z,80.13
2023-03-12T23:34:57.765Z,80.30
2023-03-12T23:38:02.272Z,82.57
2023-03-12T23:41:09.676Z,79.03
2023-03-12T23:44:14.299Z,80.41
2023-03-12T23:47:18.784Z,78.70
2023-03-12T23:50:22.772Z,78.92
2023-03-12T23:53:26.897Z,79.25
2023-03-12T23:56:37.305Z,79.96
2023-03-12T23:59:41.809Z,80.24
